sensor_id;sensor_type;location;lat;lon;timestamp;pressure;altitude;pressure_sealevel;temperature
77414;BMP280;66486;49.992;19.164;2023-02-04T00:00:01;98107.19;;;3.99
77414;BMP280;66486;49.992;19.164;2023-02-04T00:02:27;98108.31;;;4.05
77414;BMP280;66486;49.992;19.164;2023-02-04T00:04:54;98105.28;;;4.03
77414;BMP280;66486;49.992;19.164;2023-02-04T00:07:20;98099.56;;;4.08
77414;BMP280;66486;49.992;19.164;2023-02-04T00:09:46;98100.31;;;4.08
77414;BMP280;66486;49.992;19.164;2023-02-04T00:12:13;98103.00;;;3.98
77414;BMP280;66486;49.992;19.164;2023-02-04T00:14:39;98098.44;;;4.05
77414;BMP280;66486;49.992;19.164;2023-02-04T00:17:05;98096.09;;;4.18
77414;BMP280;66486;49.992;19.164;2023-02-04T00:19:32;98090.03;;;4.14
77414;BMP280;66486;49.992;19.164;2023-02-04T00:21:59;98093.88;;;4.06
77414;BMP280;66486;49.992;19.164;2023-02-04T00:24:24;98084.31;;;4.15
77414;BMP280;66486;49.992;19.164;2023-02-04T00:26:51;98086.25;;;4.08
77414;BMP280;66486;49.992;19.164;2023-02-04T00:29:16;98087.03;;;4.05
77414;BMP280;66486;49.992;19.164;2023-02-04T00:31:42;98085.13;;;4.09
77414;BMP280;66486;49.992;19.164;2023-02-04T00:34:08;98087.03;;;4.01
77414;BMP280;66486;49.992;19.164;2023-02-04T00:36:34;98085.13;;;4.09
77414;BMP280;66486;49.992;19.164;2023-02-04T00:39:00;98081.34;;;4.06
77414;BMP280;66486;49.992;19.164;2023-02-04T00:41:26;98101.81;;;4.17
77414;BMP280;66486;49.992;19.164;2023-02-04T00:43:52;98091.53;;;4.19
77414;BMP280;66486;49.992;19.164;2023-02-04T00:46:18;98092.31;;;4.19
77414;BMP280;66486;49.992;19.164;2023-02-04T00:48:44;98087.38;;;4.21
77414;BMP280;66486;49.992;19.164;2023-02-04T00:51:10;98082.06;;;4.21
77414;BMP280;66486;49.992;19.164;2023-02-04T00:53:36;98079.75;;;4.23
77414;BMP280;66486;49.992;19.164;2023-02-04T00:56:02;98076.31;;;4.33
77414;BMP280;66486;49.992;19.164;2023-02-04T00:58:28;98086.59;;;4.31
77414;BMP280;66486;49.992;19.164;2023-02-04T01:00:54;98076.72;;;4.25
77414;BMP280;66486;49.992;19.164;2023-02-04T01:03:20;98075.94;;;4.31
77414;BMP280;66486;49.992;19.164;2023-02-04T01:05:47;98075.56;;;4.29
77414;BMP280;66486;49.992;19.164;2023-02-04T01:08:12;98080.88;;;4.33
77414;BMP280;66486;49.992;19.164;2023-02-04T01:10:39;98070.22;;;4.33
77414;BMP280;66486;49.992;19.164;2023-02-04T01:13:04;98067.19;;;4.34
77414;BMP280;66486;49.992;19.164;2023-02-04T01:15:31;98060.28;;;4.37
77414;BMP280;66486;49.992;19.164;2023-02-04T01:17:56;98072.47;;;4.38
77414;BMP280;66486;49.992;19.164;2023-02-04T01:20:23;98061.88;;;4.27
77414;BMP280;66486;49.992;19.164;2023-02-04T01:22:48;98054.66;;;4.31
77414;BMP280;66486;49.992;19.164;2023-02-04T01:25:15;98058.44;;;4.27
77414;BMP280;66486;49.992;19.164;2023-02-04T01:27:41;98052.38;;;4.19
77414;BMP280;66486;49.992;19.164;2023-02-04T01:30:09;98050.84;;;4.18
77414;BMP280;66486;49.992;19.164;2023-02-04T01:32:35;98055.44;;;4.21
77414;BMP280;66486;49.992;19.164;2023-02-04T01:35:02;98052.78;;;4.18
77414;BMP280;66486;49.992;19.164;2023-02-04T01:37:28;98054.28;;;4.19
77414;BMP280;66486;49.992;19.164;2023-02-04T01:39:55;98050.47;;;4.20
77414;BMP280;66486;49.992;19.164;2023-02-04T01:42:20;98042.91;;;4.11
77414;BMP280;66486;49.992;19.164;2023-02-04T01:44:47;98046.34;;;4.04
77414;BMP280;66486;49.992;19.164;2023-02-04T01:47:13;98039.88;;;4.09
77414;BMP280;66486;49.992;19.164;2023-02-04T01:49:40;98030.03;;;4.06
77414;BMP280;66486;49.992;19.164;2023-02-04T01:52:06;98027.75;;;4.01
77414;BMP280;66486;49.992;19.164;2023-02-04T01:54:32;98044.47;;;4.01
77414;BMP280;66486;49.992;19.164;2023-02-04T01:56:58;98035.72;;;4.04
77414;BMP280;66486;49.992;19.164;2023-02-04T01:59:25;98030.72;;;4.17
77414;BMP280;66486;49.992;19.164;2023-02-04T02:01:52;98034.56;;;4.09
77414;BMP280;66486;49.992;19.164;2023-02-04T02:04:30;98034.56;;;4.09
77414;BMP280;66486;49.992;19.164;2023-02-04T02:06:59;98034.94;;;4.04
77414;BMP280;66486;49.992;19.164;2023-02-04T02:09:28;98038.00;;;4.02
77414;BMP280;66486;49.992;19.164;2023-02-04T02:11:54;98048.66;;;4.02
77414;BMP280;66486;49.992;19.164;2023-02-04T02:14:21;98047.88;;;4.09
77414;BMP280;66486;49.992;19.164;2023-02-04T02:16:47;98039.53;;;4.07
77414;BMP280;66486;49.992;19.164;2023-02-04T02:19:25;98058.13;;;3.96
77414;BMP280;66486;49.992;19.164;2023-02-04T02:21:59;98063.09;;;3.98
77414;BMP280;66486;49.992;19.164;2023-02-04T02:24:31;98062.31;;;4.08
77414;BMP280;66486;49.992;19.164;2023-02-04T02:27:01;98067.28;;;4.06
77414;BMP280;66486;49.992;19.164;2023-02-04T02:29:28;98082.06;;;4.03
77414;BMP280;66486;49.992;19.164;2023-02-04T02:31:55;98093.47;;;4.00
77414;BMP280;66486;49.992;19.164;2023-02-04T02:34:26;98089.72;;;3.80
77414;BMP280;66486;49.992;19.164;2023-02-04T02:36:53;98106.81;;;3.47
77414;BMP280;66486;49.992;19.164;2023-02-04T02:39:20;98109.81;;;3.11
77414;BMP280;66486;49.992;19.164;2023-02-04T02:41:46;98107.09;;;2.86
77414;BMP280;66486;49.992;19.164;2023-02-04T02:44:14;98108.53;;;2.73
77414;BMP280;66486;49.992;19.164;2023-02-04T02:46:41;98108.13;;;2.57
77414;BMP280;66486;49.992;19.164;2023-02-04T02:49:15;98118.03;;;2.74
77414;BMP280;66486;49.992;19.164;2023-02-04T02:51:42;98120.72;;;2.81
77414;BMP280;66486;49.992;19.164;2023-02-04T02:54:31;98137.47;;;2.92
77414;BMP280;66486;49.992;19.164;2023-02-04T02:56:58;98144.66;;;2.91
77414;BMP280;66486;49.992;19.164;2023-02-04T02:59:26;98151.50;;;2.96
77414;BMP280;66486;49.992;19.164;2023-02-04T03:02:00;98154.91;;;2.86
77414;BMP280;66486;49.992;19.164;2023-02-04T03:04:30;98164.72;;;2.82
77414;BMP280;66486;49.992;19.164;2023-02-04T03:06:56;98174.59;;;2.85
77414;BMP280;66486;49.992;19.164;2023-02-04T03:09:24;98167.78;;;2.84
77414;BMP280;66486;49.992;19.164;2023-02-04T03:11:51;98176.13;;;2.82
77414;BMP280;66486;49.992;19.164;2023-02-04T03:14:18;98171.06;;;2.63
77414;BMP280;66486;49.992;19.164;2023-02-04T03:16:45;98171.09;;;2.67
77414;BMP280;66486;49.992;19.164;2023-02-04T03:19:12;98182.06;;;2.58
77414;BMP280;66486;49.992;19.164;2023-02-04T03:21:38;98177.81;;;2.50
77414;BMP280;66486;49.992;19.164;2023-02-04T03:24:05;98180.84;;;2.45
77414;BMP280;66486;49.992;19.164;2023-02-04T03:26:31;98179.66;;;2.42
77414;BMP280;66486;49.992;19.164;2023-02-04T03:28:58;98180.38;;;2.36
77414;BMP280;66486;49.992;19.164;2023-02-04T03:31:24;98187.56;;;2.35
77414;BMP280;66486;49.992;19.164;2023-02-04T03:33:50;98178.94;;;2.45
77414;BMP280;66486;49.992;19.164;2023-02-04T03:36:16;98191.72;;;2.33
77414;BMP280;66486;49.992;19.164;2023-02-04T03:38:42;98190.19;;;2.25
77414;BMP280;66486;49.992;19.164;2023-02-04T03:41:08;98206.47;;;2.23
77414;BMP280;66486;49.992;19.164;2023-02-04T03:43:34;98209.44;;;2.15
77414;BMP280;66486;49.992;19.164;2023-02-04T03:45:59;98223.09;;;2.20
77414;BMP280;66486;49.992;19.164;2023-02-04T03:48:26;98224.22;;;2.16
77414;BMP280;66486;49.992;19.164;2023-02-04T03:50:51;98224.16;;;2.09
77414;BMP280;66486;49.992;19.164;2023-02-04T03:53:17;98232.50;;;2.11
77414;BMP280;66486;49.992;19.164;2023-02-04T03:55:43;98245.03;;;2.14
77414;BMP280;66486;49.992;19.164;2023-02-04T03:58:09;98245.00;;;2.10
77414;BMP280;66486;49.992;19.164;2023-02-04T04:00:35;98255.50;;;1.99
77414;BMP280;66486;49.992;19.164;2023-02-04T04:03:01;98250.97;;;2.00
77414;BMP280;66486;49.992;19.164;2023-02-04T04:05:27;98265.03;;;2.04
77414;BMP280;66486;49.992;19.164;2023-02-04T04:07:53;98271.84;;;2.05
77414;BMP280;66486;49.992;19.164;2023-02-04T04:10:19;98276.09;;;2.13
77414;BMP280;66486;49.992;19.164;2023-02-04T04:12:45;98291.53;;;2.04
77414;BMP280;66486;49.992;19.164;2023-02-04T04:15:11;98291.84;;;1.99
77414;BMP280;66486;49.992;19.164;2023-02-04T04:17:37;98305.16;;;2.02
77414;BMP280;66486;49.992;19.164;2023-02-04T04:20:03;98318.88;;;2.08
77414;BMP280;66486;49.992;19.164;2023-02-04T04:22:30;98314.59;;;2.00
77414;BMP280;66486;49.992;19.164;2023-02-04T04:24:56;98327.13;;;2.03
77414;BMP280;66486;49.992;19.164;2023-02-04T04:27:22;98340.81;;;2.05
77414;BMP280;66486;49.992;19.164;2023-02-04T04:29:48;98348.22;;;1.92
77414;BMP280;66486;49.992;19.164;2023-02-04T04:32:14;98361.34;;;2.12
77414;BMP280;66486;49.992;19.164;2023-02-04T04:34:40;98383.00;;;1.84
77414;BMP280;66486;49.992;19.164;2023-02-04T04:37:06;98398.09;;;1.80
77414;BMP280;66486;49.992;19.164;2023-02-04T04:39:32;98434.72;;;1.71
77414;BMP280;66486;49.992;19.164;2023-02-04T04:41:58;98429.50;;;1.51
77414;BMP280;66486;49.992;19.164;2023-02-04T04:44:24;98441.06;;;1.40
77414;BMP280;66486;49.992;19.164;2023-02-04T04:46:50;98457.25;;;1.31
77414;BMP280;66486;49.992;19.164;2023-02-04T04:49:16;98472.78;;;1.36
77414;BMP280;66486;49.992;19.164;2023-02-04T04:51:42;98491.63;;;1.28
77414;BMP280;66486;49.992;19.164;2023-02-04T04:54:08;98498.84;;;1.31
77414;BMP280;66486;49.992;19.164;2023-02-04T04:56:34;98521.13;;;1.07
77414;BMP280;66486;49.992;19.164;2023-02-04T04:59:00;98572.44;;;0.99
77414;BMP280;66486;49.992;19.164;2023-02-04T05:01:26;98565.88;;;0.93
77414;BMP280;66486;49.992;19.164;2023-02-04T05:03:52;98619.47;;;0.86
77414;BMP280;66486;49.992;19.164;2023-02-04T05:06:18;98607.88;;;0.75
77414;BMP280;66486;49.992;19.164;2023-02-04T05:08:53;98636.78;;;0.65
77414;BMP280;66486;49.992;19.164;2023-02-04T05:11:19;98641.22;;;0.61
77414;BMP280;66486;49.992;19.164;2023-02-04T05:13:46;98653.50;;;0.53
77414;BMP280;66486;49.992;19.164;2023-02-04T05:16:12;98660.84;;;0.60
77414;BMP280;66486;49.992;19.164;2023-02-04T05:18:39;98687.50;;;0.51
77414;BMP280;66486;49.992;19.164;2023-02-04T05:21:05;98711.88;;;0.44
77414;BMP280;66486;49.992;19.164;2023-02-04T05:23:31;98711.03;;;0.40
77414;BMP280;66486;49.992;19.164;2023-02-04T05:25:58;98722.22;;;0.34
77414;BMP280;66486;49.992;19.164;2023-02-04T05:28:24;98735.75;;;0.29
77414;BMP280;66486;49.992;19.164;2023-02-04T05:30:50;98766.94;;;0.39
77414;BMP280;66486;49.992;19.164;2023-02-04T05:33:16;98776.34;;;0.36
77414;BMP280;66486;49.992;19.164;2023-02-04T05:35:42;98806.84;;;0.34
77414;BMP280;66486;49.992;19.164;2023-02-04T05:38:08;98816.00;;;0.36
77414;BMP280;66486;49.992;19.164;2023-02-04T05:40:34;98834.09;;;0.34
77414;BMP280;66486;49.992;19.164;2023-02-04T05:43:00;98841.00;;;0.39
77414;BMP280;66486;49.992;19.164;2023-02-04T05:45:26;98860.38;;;0.43
77414;BMP280;66486;49.992;19.164;2023-02-04T05:47:52;98874.94;;;0.37
77414;BMP280;66486;49.992;19.164;2023-02-04T05:50:18;98894.25;;;0.37
77414;BMP280;66486;49.992;19.164;2023-02-04T05:52:44;98904.72;;;0.34
77414;BMP280;66486;49.992;19.164;2023-02-04T05:55:11;98920.38;;;0.39
77414;BMP280;66486;49.992;19.164;2023-02-04T05:57:37;98937.59;;;0.33
77414;BMP280;66486;49.992;19.164;2023-02-04T06:00:05;98960.22;;;0.30
77414;BMP280;66486;49.992;19.164;2023-02-04T06:02:31;98976.31;;;0.25
77414;BMP280;66486;49.992;19.164;2023-02-04T06:04:57;98987.78;;;0.29
77414;BMP280;66486;49.992;19.164;2023-02-04T06:07:23;99014.44;;;0.24
77414;BMP280;66486;49.992;19.164;2023-02-04T06:09:49;99009.38;;;0.19
77414;BMP280;66486;49.992;19.164;2023-02-04T06:12:15;99023.94;;;0.13
77414;BMP280;66486;49.992;19.164;2023-02-04T06:14:41;99043.91;;;0.11
77414;BMP280;66486;49.992;19.164;2023-02-04T06:17:07;99082.44;;;0.12
77414;BMP280;66486;49.992;19.164;2023-02-04T06:19:33;99092.91;;;0.08
77414;BMP280;66486;49.992;19.164;2023-02-04T06:21:59;99106.47;;;0.07
77414;BMP280;66486;49.992;19.164;2023-02-04T06:24:25;99121.56;;;0.06
77414;BMP280;66486;49.992;19.164;2023-02-04T06:26:51;99140.63;;;-0.01
77414;BMP280;66486;49.992;19.164;2023-02-04T06:29:17;99155.69;;;-0.01
77414;BMP280;66486;49.992;19.164;2023-02-04T06:31:43;99163.84;;;-0.06
77414;BMP280;66486;49.992;19.164;2023-02-04T06:34:09;99170.78;;;-0.02
77414;BMP280;66486;49.992;19.164;2023-02-04T06:36:35;99185.44;;;-0.04
77414;BMP280;66486;49.992;19.164;2023-02-04T06:39:01;99192.84;;;0.03
77414;BMP280;66486;49.992;19.164;2023-02-04T06:41:27;99204.19;;;0.15
77414;BMP280;66486;49.992;19.164;2023-02-04T06:43:53;99224.13;;;0.13
77414;BMP280;66486;49.992;19.164;2023-02-04T06:46:19;99231.75;;;0.14
77414;BMP280;66486;49.992;19.164;2023-02-04T06:48:45;99232.97;;;0.17
77414;BMP280;66486;49.992;19.164;2023-02-04T06:51:10;99263.94;;;0.16
77414;BMP280;66486;49.992;19.164;2023-02-04T06:53:37;99259.09;;;0.18
77414;BMP280;66486;49.992;19.164;2023-02-04T06:56:03;99273.06;;;0.19
77414;BMP280;66486;49.992;19.164;2023-02-04T06:58:29;99286.75;;;0.21
77414;BMP280;66486;49.992;19.164;2023-02-04T07:00:54;99300.63;;;0.18
77414;BMP280;66486;49.992;19.164;2023-02-04T07:03:21;99317.28;;;0.18
77414;BMP280;66486;49.992;19.164;2023-02-04T07:05:46;99327.41;;;0.16
77414;BMP280;66486;49.992;19.164;2023-02-04T07:08:12;99335.88;;;0.10
77414;BMP280;66486;49.992;19.164;2023-02-04T07:10:38;99344.56;;;0.10
77414;BMP280;66486;49.992;19.164;2023-02-04T07:13:04;99345.00;;;0.12
77414;BMP280;66486;49.992;19.164;2023-02-04T07:15:30;99361.22;;;0.11
77414;BMP280;66486;49.992;19.164;2023-02-04T07:17:56;99348.75;;;0.11
77414;BMP280;66486;49.992;19.164;2023-02-04T07:20:22;99397.78;;;0.09
77414;BMP280;66486;49.992;19.164;2023-02-04T07:22:48;99405.19;;;0.15
77414;BMP280;66486;49.992;19.164;2023-02-04T07:25:14;99408.22;;;0.05
77414;BMP280;66486;49.992;19.164;2023-02-04T07:27:42;99423.00;;;0.06
77414;BMP280;66486;49.992;19.164;2023-02-04T07:30:09;99455.56;;;-0.02
77414;BMP280;66486;49.992;19.164;2023-02-04T07:32:35;99440.47;;;-0.02
77414;BMP280;66486;49.992;19.164;2023-02-04T07:35:01;99448.28;;;-0.05
77414;BMP280;66486;49.992;19.164;2023-02-04T07:37:27;99470.34;;;-0.01
77414;BMP280;66486;49.992;19.164;2023-02-04T07:39:53;99463.34;;;-0.06
77414;BMP280;66486;49.992;19.164;2023-02-04T07:42:19;99473.75;;;-0.01
77414;BMP280;66486;49.992;19.164;2023-02-04T07:44:45;99475.28;;;0.00
77414;BMP280;66486;49.992;19.164;2023-02-04T07:47:11;99480.84;;;0.08
77414;BMP280;66486;49.992;19.164;2023-02-04T07:49:37;99492.19;;;0.08
77414;BMP280;66486;49.992;19.164;2023-02-04T07:52:04;99501.59;;;-0.03
77414;BMP280;66486;49.992;19.164;2023-02-04T07:54:29;99506.88;;;-0.03
77414;BMP280;66486;49.992;19.164;2023-02-04T07:56:56;99519.81;;;-0.10
77414;BMP280;66486;49.992;19.164;2023-02-04T07:59:21;99510.94;;;-0.06
77414;BMP280;66486;49.992;19.164;2023-02-04T08:01:48;99519.81;;;-0.10
77414;BMP280;66486;49.992;19.164;2023-02-04T08:04:14;99535.38;;;-0.09
77414;BMP280;66486;49.992;19.164;2023-02-04T08:06:40;99534.16;;;-0.11
77414;BMP280;66486;49.992;19.164;2023-02-04T08:09:06;99538.75;;;0.00
77414;BMP280;66486;49.992;19.164;2023-02-04T08:11:32;99548.41;;;-0.04
77414;BMP280;66486;49.992;19.164;2023-02-04T08:13:58;99573.19;;;-0.08
77414;BMP280;66486;49.992;19.164;2023-02-04T08:16:24;99568.34;;;-0.15
77414;BMP280;66486;49.992;19.164;2023-02-04T08:18:50;99569.41;;;-0.07
77414;BMP280;66486;49.992;19.164;2023-02-04T08:21:16;99567.69;;;-0.03
77414;BMP280;66486;49.992;19.164;2023-02-04T08:23:42;99592.56;;;0.05
77414;BMP280;66486;49.992;19.164;2023-02-04T08:26:09;99586.47;;;0.04
77414;BMP280;66486;49.992;19.164;2023-02-04T08:28:36;99590.97;;;0.12
77414;BMP280;66486;49.992;19.164;2023-02-04T08:31:06;99598.19;;;0.03
77414;BMP280;66486;49.992;19.164;2023-02-04T08:33:37;99604.75;;;-0.12
77414;BMP280;66486;49.992;19.164;2023-02-04T08:36:05;99623.44;;;-0.25
77414;BMP280;66486;49.992;19.164;2023-02-04T08:38:31;99620.78;;;-0.25
77414;BMP280;66486;49.992;19.164;2023-02-04T08:40:57;99624.38;;;-0.21
77414;BMP280;66486;49.992;19.164;2023-02-04T08:43:25;99632.00;;;-0.28
77414;BMP280;66486;49.992;19.164;2023-02-04T08:45:51;99642.56;;;-0.28
77414;BMP280;66486;49.992;19.164;2023-02-04T08:48:17;99648.00;;;-0.25
77414;BMP280;66486;49.992;19.164;2023-02-04T08:50:43;99656.38;;;-0.14
77414;BMP280;66486;49.992;19.164;2023-02-04T08:53:09;99656.53;;;-0.11
77414;BMP280;66486;49.992;19.164;2023-02-04T08:55:35;99665.56;;;-0.12
77414;BMP280;66486;49.992;19.164;2023-02-04T08:58:01;99676.44;;;-0.05
77414;BMP280;66486;49.992;19.164;2023-02-04T09:00:28;99707.81;;;0.06
77414;BMP280;66486;49.992;19.164;2023-02-04T09:02:54;99690.09;;;0.15
77414;BMP280;66486;49.992;19.164;2023-02-04T09:05:20;99697.53;;;0.21
77414;BMP280;66486;49.992;19.164;2023-02-04T09:07:46;99699.00;;;0.39
77414;BMP280;66486;49.992;19.164;2023-02-04T09:10:12;99697.63;;;0.63
77414;BMP280;66486;49.992;19.164;2023-02-04T09:12:38;99699.81;;;0.69
77414;BMP280;66486;49.992;19.164;2023-02-04T09:15:04;99702.78;;;0.59
77414;BMP280;66486;49.992;19.164;2023-02-04T09:17:30;99713.19;;;0.64
77414;BMP280;66486;49.992;19.164;2023-02-04T09:19:57;99716.00;;;0.68
77414;BMP280;66486;49.992;19.164;2023-02-04T09:22:22;99724.69;;;0.77
77414;BMP280;66486;49.992;19.164;2023-02-04T09:24:48;99720.75;;;0.83
77414;BMP280;66486;49.992;19.164;2023-02-04T09:27:14;99740.72;;;0.80
77414;BMP280;66486;49.992;19.164;2023-02-04T09:29:40;99739.22;;;0.62
77414;BMP280;66486;49.992;19.164;2023-02-04T09:32:06;99744.47;;;0.71
77414;BMP280;66486;49.992;19.164;2023-02-04T09:34:32;99754.91;;;0.76
77414;BMP280;66486;49.992;19.164;2023-02-04T09:36:58;99746.75;;;0.81
77414;BMP280;66486;49.992;19.164;2023-02-04T09:39:24;99755.53;;;0.73
77414;BMP280;66486;49.992;19.164;2023-02-04T09:41:50;99760.41;;;0.62
77414;BMP280;66486;49.992;19.164;2023-02-04T09:44:20;99774.09;;;0.56
77414;BMP280;66486;49.992;19.164;2023-02-04T09:46:49;99766.50;;;0.54
77414;BMP280;66486;49.992;19.164;2023-02-04T09:49:16;99763.06;;;0.62
77414;BMP280;66486;49.992;19.164;2023-02-04T09:51:43;99781.59;;;0.62
77414;BMP280;66486;49.992;19.164;2023-02-04T09:54:15;99782.47;;;0.75
77414;BMP280;66486;49.992;19.164;2023-02-04T09:56:41;99780.50;;;0.92
77414;BMP280;66486;49.992;19.164;2023-02-04T09:59:18;99785.94;;;0.96
77414;BMP280;66486;49.992;19.164;2023-02-04T10:01:53;99791.38;;;0.99
77414;BMP280;66486;49.992;19.164;2023-02-04T10:04:21;99802.94;;;0.95
77414;BMP280;66486;49.992;19.164;2023-02-04T10:06:47;99801.81;;;1.05
77414;BMP280;66486;49.992;19.164;2023-02-04T10:09:14;99801.94;;;1.08
77414;BMP280;66486;49.992;19.164;2023-02-04T10:11:42;99804.56;;;1.17
77414;BMP280;66486;49.992;19.164;2023-02-04T10:14:18;99816.97;;;1.25
77414;BMP280;66486;49.992;19.164;2023-02-04T10:16:54;99829.97;;;1.38
77414;BMP280;66486;49.992;19.164;2023-02-04T10:19:21;99823.66;;;1.31
77414;BMP280;66486;49.992;19.164;2023-02-04T10:21:48;99834.00;;;1.15
77414;BMP280;66486;49.992;19.164;2023-02-04T10:24:20;99843.78;;;0.85
77414;BMP280;66486;49.992;19.164;2023-02-04T10:26:47;99835.09;;;0.76
77414;BMP280;66486;49.992;19.164;2023-02-04T10:29:17;99826.66;;;0.83
77414;BMP280;66486;49.992;19.164;2023-02-04T10:31:46;99843.69;;;0.65
77414;BMP280;66486;49.992;19.164;2023-02-04T10:34:18;99852.38;;;0.74
77414;BMP280;66486;49.992;19.164;2023-02-04T10:36:47;99852.88;;;0.76
77414;BMP280;66486;49.992;19.164;2023-02-04T10:39:17;99862.16;;;0.99
77414;BMP280;66486;49.992;19.164;2023-02-04T10:41:49;99850.06;;;1.19
77414;BMP280;66486;49.992;19.164;2023-02-04T10:44:18;99853.69;;;1.64
77414;BMP280;66486;49.992;19.164;2023-02-04T10:46:44;99864.16;;;1.61
77414;BMP280;66486;49.992;19.164;2023-02-04T10:49:22;99858.50;;;1.41
77414;BMP280;66486;49.992;19.164;2023-02-04T10:51:49;99867.97;;;1.22
77414;BMP280;66486;49.992;19.164;2023-02-04T10:54:20;99876.28;;;1.03
77414;BMP280;66486;49.992;19.164;2023-02-04T10:56:57;99880.66;;;1.08
77414;BMP280;66486;49.992;19.164;2023-02-04T10:59:25;99867.81;;;1.18
77414;BMP280;66486;49.992;19.164;2023-02-04T11:01:56;99873.03;;;1.35
77414;BMP280;66486;49.992;19.164;2023-02-04T11:04:25;99877.59;;;1.56
77414;BMP280;66486;49.992;19.164;2023-02-04T11:06:51;99887.75;;;1.54
77414;BMP280;66486;49.992;19.164;2023-02-04T11:09:18;99892.66;;;1.14
77414;BMP280;66486;49.992;19.164;2023-02-04T11:11:46;99894.09;;;0.94
77414;BMP280;66486;49.992;19.164;2023-02-04T11:14:29;99901.16;;;0.73
77414;BMP280;66486;49.992;19.164;2023-02-04T11:16:56;99907.25;;;0.65
77414;BMP280;66486;49.992;19.164;2023-02-04T11:19:37;99910.03;;;0.60
77414;BMP280;66486;49.992;19.164;2023-02-04T11:22:20;99899.94;;;0.62
77414;BMP280;66486;49.992;19.164;2023-02-04T11:24:48;99918.28;;;0.75
77414;BMP280;66486;49.992;19.164;2023-02-04T11:27:24;99899.09;;;0.87
77414;BMP280;66486;49.992;19.164;2023-02-04T11:29:52;99906.84;;;1.09
77414;BMP280;66486;49.992;19.164;2023-02-04T11:32:36;99904.63;;;1.49
77414;BMP280;66486;49.992;19.164;2023-02-04T11:37:40;99905.47;;;1.62
77414;BMP280;66486;49.992;19.164;2023-02-04T11:40:34;99901.47;;;1.26
77414;BMP280;66486;49.992;19.164;2023-02-04T11:43:08;99913.69;;;1.39
77414;BMP280;66486;49.992;19.164;2023-02-04T11:45:38;99912.94;;;1.39
77414;BMP280;66486;49.992;19.164;2023-02-04T11:48:12;99916.00;;;1.20
77414;BMP280;66486;49.992;19.164;2023-02-04T11:50:40;99923.44;;;1.27
77414;BMP280;66486;49.992;19.164;2023-02-04T11:53:09;99923.00;;;1.16
77414;BMP280;66486;49.992;19.164;2023-02-04T11:55:43;99917.84;;;1.28
77414;BMP280;66486;49.992;19.164;2023-02-04T11:58:16;99924.38;;;1.22
77414;BMP280;66486;49.992;19.164;2023-02-04T12:00:43;99950.94;;;0.96
77414;BMP280;66486;49.992;19.164;2023-02-04T12:03:27;99945.69;;;0.88
77414;BMP280;66486;49.992;19.164;2023-02-04T12:05:59;99961.25;;;0.98
77414;BMP280;66486;49.992;19.164;2023-02-04T12:08:35;99970.13;;;1.02
77414;BMP280;66486;49.992;19.164;2023-02-04T12:11:05;99969.03;;;0.94
77414;BMP280;66486;49.992;19.164;2023-02-04T12:13:33;100001.16;;;0.76
77414;BMP280;66486;49.992;19.164;2023-02-04T12:16:04;99972.31;;;0.83
77414;BMP280;66486;49.992;19.164;2023-02-04T12:18:32;99975.75;;;0.83
77414;BMP280;66486;49.992;19.164;2023-02-04T12:20:59;99983.53;;;0.80
77414;BMP280;66486;49.992;19.164;2023-02-04T12:23:27;99994.44;;;0.70
77414;BMP280;66486;49.992;19.164;2023-02-04T12:25:54;99987.59;;;0.60
77414;BMP280;66486;49.992;19.164;2023-02-04T12:28:21;99990.84;;;0.57
77414;BMP280;66486;49.992;19.164;2023-02-04T12:30:47;100026.34;;;0.56
77414;BMP280;66486;49.992;19.164;2023-02-04T12:33:13;99973.44;;;0.65
77414;BMP280;66486;49.992;19.164;2023-02-04T12:35:39;99978.25;;;0.80
77414;BMP280;66486;49.992;19.164;2023-02-04T12:38:06;99988.66;;;0.85
77414;BMP280;66486;49.992;19.164;2023-02-04T12:40:33;99982.28;;;0.86
77414;BMP280;66486;49.992;19.164;2023-02-04T12:43:00;99999.44;;;0.80
77414;BMP280;66486;49.992;19.164;2023-02-04T12:45:26;99996.16;;;0.66
77414;BMP280;66486;49.992;19.164;2023-02-04T12:47:52;99995.84;;;0.76
77414;BMP280;66486;49.992;19.164;2023-02-04T12:50:18;100014.53;;;0.79
77414;BMP280;66486;49.992;19.164;2023-02-04T12:52:51;100021.38;;;0.89
77414;BMP280;66486;49.992;19.164;2023-02-04T12:55:18;100023.88;;;0.85
77414;BMP280;66486;49.992;19.164;2023-02-04T12:57:44;100018.09;;;0.92
77414;BMP280;66486;49.992;19.164;2023-02-04T13:00:12;100020.00;;;0.91
77414;BMP280;66486;49.992;19.164;2023-02-04T13:02:39;100026.69;;;0.97
77414;BMP280;66486;49.992;19.164;2023-02-04T13:05:05;100013.75;;;0.79
77414;BMP280;66486;49.992;19.164;2023-02-04T13:07:31;100029.97;;;0.86
77414;BMP280;66486;49.992;19.164;2023-02-04T13:09:58;100039.00;;;0.93
77414;BMP280;66486;49.992;19.164;2023-02-04T13:12:24;100037.13;;;0.85
77414;BMP280;66486;49.992;19.164;2023-02-04T13:14:51;100052.25;;;0.93
77414;BMP280;66486;49.992;19.164;2023-02-04T13:17:17;100055.50;;;0.73
77414;BMP280;66486;49.992;19.164;2023-02-04T13:19:43;100059.06;;;0.60
77414;BMP280;66486;49.992;19.164;2023-02-04T13:22:09;100058.44;;;0.63
77414;BMP280;66486;49.992;19.164;2023-02-04T13:24:35;100062.94;;;0.63
77414;BMP280;66486;49.992;19.164;2023-02-04T13:27:01;100063.13;;;0.58
77414;BMP280;66486;49.992;19.164;2023-02-04T13:29:27;100065.75;;;0.66
77414;BMP280;66486;49.992;19.164;2023-02-04T13:31:53;100070.44;;;0.61
77414;BMP280;66486;49.992;19.164;2023-02-04T13:34:19;100068.09;;;0.68
77414;BMP280;66486;49.992;19.164;2023-02-04T13:36:45;100069.19;;;0.58
77414;BMP280;66486;49.992;19.164;2023-02-04T13:39:11;100078.97;;;0.49
77414;BMP280;66486;49.992;19.164;2023-02-04T13:41:37;100082.28;;;0.55
77414;BMP280;66486;49.992;19.164;2023-02-04T13:44:03;100090.22;;;0.63
77414;BMP280;66486;49.992;19.164;2023-02-04T13:46:30;100097.22;;;0.59
77414;BMP280;66486;49.992;19.164;2023-02-04T13:48:56;100094.41;;;0.47
77414;BMP280;66486;49.992;19.164;2023-02-04T13:51:22;100090.19;;;0.46
77414;BMP280;66486;49.992;19.164;2023-02-04T13:53:48;100100.19;;;0.58
77414;BMP280;66486;49.992;19.164;2023-02-04T13:56:14;100097.53;;;0.66
77414;BMP280;66486;49.992;19.164;2023-02-04T13:58:40;100098.63;;;0.65
77414;BMP280;66486;49.992;19.164;2023-02-04T14:01:12;100108.78;;;0.72
77414;BMP280;66486;49.992;19.164;2023-02-04T14:03:39;100096.75;;;0.57
77414;BMP280;66486;49.992;19.164;2023-02-04T14:06:05;100105.16;;;0.59
77414;BMP280;66486;49.992;19.164;2023-02-04T14:08:32;100108.91;;;0.58